Time,TemperatureF,DewpointF,PressureIn,WindDirection,WindDirectionDegrees,WindSpeedMPH,WindSpeedGustMPH,Humidity,HourlyPrecipIn,Conditions,Clouds,dailyrainin,SoftwareType,DateUTC
2013-04-02 00:23:00,43.0,-99.9,29.92,WSW,245,-999.0,-999.0,-999,-99.99,,,-99.99,,2013-04-02 04:23:00,
2013-04-02 00:33:00,43.0,-99.9,29.92,WSW,245,-999.0,-999.0,-999,-99.99,,,-99.99,,2013-04-02 04:33:00,
2013-04-02 00:43:00,43.0,-99.9,29.92,WSW,245,-999.0,-999.0,-999,-99.99,,,-99.99,,2013-04-02 04:43:00,
2013-04-02 00:52:00,41.0,-99.9,29.96,NNW,329,-999.0,20.0,-999,-99.99,,,-99.99,,2013-04-02 04:52:00,
2013-04-02 01:23:00,41.0,-99.9,29.96,NNW,329,-999.0,20.0,-999,-99.99,,,-99.99,,2013-04-02 05:23:00,
2013-04-02 01:33:00,41.0,-99.9,29.96,NNW,329,-999.0,20.0,-999,-99.99,,,-99.99,,2013-04-02 05:33:00,
2013-04-02 01:43:00,41.0,-99.9,29.96,NNW,329,-999.0,20.0,-999,-99.99,,,-99.99,,2013-04-02 05:43:00,
2013-04-02 01:52:00,39.0,-99.9,29.99,NNW,329,-999.0,-999.0,-999,-99.99,,,-99.99,,2013-04-02 05:52:00,
2013-04-02 02:22:00,39.0,-99.9,29.99,NNW,329,-999.0,-999.0,-999,-99.99,,,-99.99,,2013-04-02 06:22:00,
2013-04-02 02:32:00,39.0,-99.9,29.99,NNW,329,-999.0,-999.0,-999,-99.99,,,-99.99,,2013-04-02 06:32:00,
2013-04-02 02:42:00,39.0,-99.9,29.99,NNW,329,-999.0,-999.0,-999,-99.99,,,-99.99,,2013-04-02 06:42:00,
2013-04-02 02:52:00,37.0,-99.9,29.99,NNW,329,-999.0,-999.0,-999,-99.99,,,-99.99,,2013-04-02 06:52:00,
2013-04-02 03:32:00,37.0,-99.9,29.99,NNW,329,-999.0,-999.0,-999,-99.99,,,-99.99,,2013-04-02 07:32:00,
2013-04-02 03:43:00,37.0,-99.9,29.99,NNW,329,-999.0,-999.0,-999,-99.99,,,-99.99,,2013-04-02 07:43:00,
2013-04-02 03:52:00,36.0,-99.9,29.99,NNW,329,-999.0,-999.0,-999,-99.99,,,-99.99,,2013-04-02 07:52:00,
2013-04-02 04:23:00,36.0,-99.9,29.99,NNW,329,-999.0,-999.0,-999,-99.99,,,-99.99,,2013-04-02 08:23:00,
2013-04-02 04:33:00,36.0,-99.9,29.99,NNW,329,-999.0,-999.0,-999,-99.99,,,-99.99,,2013-04-02 08:33:00,
2013-04-02 04:43:00,36.0,-99.9,29.99,NNW,329,-999.0,-999.0,-999,-99.99,,,-99.99,,2013-04-02 08:43:00,
2013-04-02 04:52:00,36.0,-99.9,30.01,NNW,329,-999.0,-999.0,-999,-99.99,,,-99.99,,2013-04-02 08:52:00,
2013-04-02 05:22:00,36.0,-99.9,30.01,NNW,329,-999.0,-999.0,-999,-99.99,,,-99.99,,2013-04-02 09:22:00,
2013-04-02 05:33:00,36.0,-99.9,30.01,NNW,329,-999.0,-999.0,-999,-99.99,,,-99.99,,2013-04-02 09:33:00,
2013-04-02 05:43:00,36.0,-99.9,30.01,NNW,329,-999.0,-999.0,-999,-99.99,,,-99.99,,2013-04-02 09:43:00,
2013-04-02 05:52:00,35.0,-99.9,30.02,NNW,329,-999.0,-999.0,-999,-99.99,,,-99.99,,2013-04-02 09:52:00,
2013-04-02 06:24:00,35.0,-99.9,30.02,NNW,329,-999.0,-999.0,-999,-99.99,,,-99.99,,2013-04-02 10:24:00,
2013-04-02 06:33:00,35.0,-99.9,30.02,NNW,329,-999.0,-999.0,-999,-99.99,,,-99.99,,2013-04-02 10:33:00,
2013-04-02 06:43:00,35.0,-99.9,30.02,NNW,329,-999.0,-999.0,-999,-99.99,,,-99.99,,2013-04-02 10:43:00,
2013-04-02 06:52:00,36.0,-99.9,30.05,NNW,329,-999.0,-999.0,-999,-99.99,,,-99.99,,2013-04-02 10:52:00,
2013-04-02 07:23:00,36.0,-99.9,30.05,NNW,329,-999.0,-999.0,-999,-99.99,,,-99.99,,2013-04-02 11:23:00,
2013-04-02 07:33:00,36.0,-99.9,30.05,NNW,329,-999.0,-999.0,-999,-99.99,,,-99.99,,2013-04-02 11:33:00,
2013-04-02 07:43:00,36.0,-99.9,30.05,NNW,329,-999.0,-999.0,-999,-99.99,,,-99.99,,2013-04-02 11:43:00,
2013-04-02 07:52:00,38.0,-99.9,30.07,NNW,329,-999.0,-999.0,-999,-99.99,,,-99.99,,2013-04-02 11:52:00,
2013-04-02 08:32:00,38.0,-99.9,30.07,NNW,329,-999.0,-999.0,-999,-99.99,,,-99.99,,2013-04-02 12:32:00,
2013-04-02 08:43:00,38.0,-99.9,30.07,NNW,329,-999.0,-999.0,-999,-99.99,,,-99.99,,2013-04-02 12:43:00,
2013-04-02 08:52:00,39.0,-99.9,30.08,NNW,329,-999.0,-999.0,-999,-99.99,,,-99.99,,2013-04-02 12:52:00,
2013-04-02 09:23:00,39.0,-99.9,30.08,NNW,329,-999.0,-999.0,-999,-99.99,,,-99.99,,2013-04-02 13:23:00,
2013-04-02 09:33:00,39.0,-99.9,30.08,NNW,329,-999.0,-999.0,-999,-99.99,,,-99.99,,2013-04-02 13:33:00,
2013-04-02 09:42:00,39.0,-99.9,30.08,NNW,329,-999.0,-999.0,-999,-99.99,,,-99.99,,2013-04-02 13:42:00,
2013-04-02 09:52:00,40.0,-99.9,30.07,WNW,292,-999.0,-999.0,-999,-99.99,,,-99.99,,2013-04-02 13:52:00,
2013-04-02 10:33:00,40.0,-99.9,30.07,WNW,292,-999.0,-999.0,-999,-99.99,,,-99.99,,2013-04-02 14:33:00,
2013-04-02 10:43:00,40.0,-99.9,30.07,WNW,292,-999.0,-999.0,-999,-99.99,,,-99.99,,2013-04-02 14:43:00,
2013-04-02 10:52:00,43.0,-99.9,30.07,WNW,292,-999.0,-999.0,-999,-99.99,,,-99.99,,2013-04-02 14:52:00,
2013-04-02 11:23:00,43.0,-99.9,30.07,WNW,292,-999.0,-999.0,-999,-99.99,,,-99.99,,2013-04-02 15:23:00,
2013-04-02 11:33:00,43.0,-99.9,30.07,WNW,292,-999.0,-999.0,-999,-99.99,,,-99.99,,2013-04-02 15:33:00,
2013-04-02 11:43:00,43.0,-99.9,30.07,WNW,292,-999.0,-999.0,-999,-99.99,,,-99.99,,2013-04-02 15:43:00,
2013-04-02 12:39:00,43.0,-99.9,30.06,WNW,303,-999.0,-999.0,-999,-99.99,,,-99.99,,2013-04-02 16:39:00,
2013-04-02 12:52:00,44.0,-99.9,30.05,WNW,303,-999.0,-999.0,-999,-99.99,,,-99.99,,2013-04-02 16:52:00,
2013-04-02 13:25:00,44.0,-99.9,30.05,WNW,303,-999.0,-999.0,-999,-99.99,,,-99.99,,2013-04-02 17:25:00,
2013-04-02 13:35:00,44.0,-99.9,30.05,WNW,303,-999.0,-999.0,-999,-99.99,,,-99.99,,2013-04-02 17:35:00,
2013-04-02 13:44:00,44.0,-99.9,30.05,WNW,303,-999.0,-999.0,-999,-99.99,,,-99.99,,2013-04-02 17:44:00,
2013-04-02 13:52:00,45.0,-99.9,30.03,WNW,298,-999.0,-999.0,-999,-99.99,,,-99.99,,2013-04-02 17:52:00,
2013-04-02 14:23:00,45.0,-99.9,30.03,WNW,298,-999.0,-999.0,-999,-99.99,,,-99.99,,2013-04-02 18:23:00,
2013-04-02 14:35:00,45.0,-99.9,30.03,WNW,298,-999.0,-999.0,-999,-99.99,,,-99.99,,2013-04-02 18:35:00,
2013-04-02 14:43:00,45.0,-99.9,30.03,WNW,298,-999.0,-999.0,-999,-99.99,,,-99.99,,2013-04-02 18:43:00,
2013-04-02 14:52:00,45.0,-99.9,30.02,WNW,296,-999.0,-999.0,-999,-99.99,,,-99.99,,2013-04-02 18:52:00,
2013-04-02 15:35:00,45.0,-99.9,30.02,WNW,296,-999.0,-999.0,-999,-99.99,,,-99.99,,2013-04-02 19:35:00,
2013-04-02 15:47:00,45.0,-99.9,30.02,WNW,296,-999.0,-999.0,-999,-99.99,,,-99.99,,2013-04-02 19:47:00,
2013-04-02 15:52:00,45.0,-99.9,30.01,West,259,-999.0,-999.0,-999,-99.99,,,-99.99,,2013-04-02 19:52:00,
2013-04-02 16:23:00,45.0,-99.9,30.01,West,259,-999.0,-999.0,-999,-99.99,,,-99.99,,2013-04-02 20:23:00,
2013-04-02 16:34:00,45.0,-99.9,30.01,West,259,-999.0,-999.0,-999,-99.99,,,-99.99,,2013-04-02 20:34:00,
2013-04-02 16:44:00,45.0,-99.9,30.01,West,259,-999.0,-999.0,-999,-99.99,,,-99.99,,2013-04-02 20:44:00,
2013-04-02 16:52:00,46.0,-99.9,30.01,West,259,-999.0,-999.0,-999,-99.99,,,-99.99,,2013-04-02 20:52:00,
2013-04-02 17:23:00,46.0,-99.9,30.01,West,259,-999.0,-999.0,-999,-99.99,,,-99.99,,2013-04-02 21:23:00,
2013-04-02 17:35:00,46.0,-99.9,30.01,West,259,-999.0,-999.0,-999,-99.99,,,-99.99,,2013-04-02 21:35:00,
2013-04-02 17:44:00,46.0,-99.9,30.01,West,259,-999.0,-999.0,-999,-99.99,,,-99.99,,2013-04-02 21:44:00,
2013-04-02 17:52:00,45.0,-99.9,30.02,West,259,-999.0,-999.0,-999,-99.99,,,-99.99,,2013-04-02 21:52:00,
2013-04-02 18:25:00,45.0,-99.9,30.02,West,259,-999.0,-999.0,-999,-99.99,,,-99.99,,2013-04-02 22:25:00,
2013-04-02 18:34:00,45.0,-99.9,30.02,West,259,-999.0,-999.0,-999,-99.99,,,-99.99,,2013-04-02 22:34:00,
2013-04-02 18:44:00,45.0,-99.9,30.02,West,259,-999.0,-999.0,-999,-99.99,,,-99.99,,2013-04-02 22:44:00,
2013-04-02 18:52:00,43.0,-99.9,30.04,NNW,336,-999.0,-999.0,-999,-99.99,,,-99.99,,2013-04-02 22:52:00,
2013-04-02 19:24:00,43.0,-99.9,30.04,NNW,336,-999.0,-999.0,-999,-99.99,,,-99.99,,2013-04-02 23:24:00,
2013-04-02 19:37:00,43.0,-99.9,30.04,NNW,336,-999.0,-999.0,-999,-99.99,,,-99.99,,2013-04-02 23:37:00,
2013-04-02 19:43:00,43.0,-99.9,30.04,NNW,336,-999.0,-999.0,-999,-99.99,,,-99.99,,2013-04-02 23:43:00,
2013-04-02 19:52:00,42.0,-99.9,30.08,NNW,336,-999.0,-999.0,-999,-99.99,,,-99.99,,2013-04-02 23:52:00,
2013-04-02 20:26:00,42.0,-99.9,30.08,NNW,336,-999.0,-999.0,-999,-99.99,,,-99.99,,2013-04-03 00:26:00,
2013-04-02 20:34:00,42.0,-99.9,30.08,NNW,336,-999.0,-999.0,-999,-99.99,,,-99.99,,2013-04-03 00:34:00,
2013-04-02 20:48:00,42.0,-99.9,30.08,NNW,336,-999.0,-999.0,-999,-99.99,,,-99.99,,2013-04-03 00:48:00,
2013-04-02 20:52:00,41.0,-99.9,30.11,NNW,336,-999.0,-999.0,-999,-99.99,,,-99.99,,2013-04-03 00:52:00,
2013-04-02 21:23:00,41.0,-99.9,30.11,NNW,336,-999.0,-999.0,-999,-99.99,,,-99.99,,2013-04-03 01:23:00,
2013-04-02 21:34:00,41.0,-99.9,30.11,NNW,336,-999.0,-999.0,-999,-99.99,,,-99.99,,2013-04-03 01:34:00,
2013-04-02 21:43:00,41.0,-99.9,30.11,NNW,336,-999.0,-999.0,-999,-99.99,,,-99.99,,2013-04-03 01:43:00,
2013-04-02 21:52:00,41.0,-99.9,30.12,NNW,336,-999.0,-999.0,-999,-99.99,,,-99.99,,2013-04-03 01:52:00,
2013-04-02 22:25:00,41.0,-99.9,30.12,NNW,336,-999.0,-999.0,-999,-99.99,,,-99.99,,2013-04-03 02:25:00,
2013-04-02 22:34:00,41.0,-99.9,30.12,NNW,336,-999.0,-999.0,-999,-99.99,,,-99.99,,2013-04-03 02:34:00,
2013-04-02 22:45:00,41.0,-99.9,30.12,NNW,336,-999.0,-999.0,-999,-99.99,,,-99.99,,2013-04-03 02:45:00,
2013-04-02 22:52:00,40.0,-99.9,30.14,NNW,336,-999.0,-999.0,-999,-99.99,,,-99.99,,2013-04-03 02:52:00,
2013-04-02 23:23:00,40.0,-99.9,30.14,NNW,336,-999.0,-999.0,-999,-99.99,,,-99.99,,2013-04-03 03:23:00,
2013-04-02 23:38:00,40.0,-99.9,30.14,NNW,336,-999.0,-999.0,-999,-99.99,,,-99.99,,2013-04-03 03:38:00,
2013-04-02 23:44:00,40.0,-99.9,30.14,NNW,336,-999.0,-999.0,-999,-99.99,,,-99.99,,2013-04-03 03:44:00,
2013-04-02 23:52:00,38.0,-99.9,30.14,NNW,336,-999.0,-999.0,-999,-99.99,,,-99.99,,2013-04-03 03:52:00,